Kezdőlap
METAR-TAF:

METAR-TAF

Repülőterek :

Ermelo, Dél-afrikai Köztársaság

földrajzi szélesség: 26-29-44S, földrajzi hosszúság: 29-58-47E, magasság: 1737 m

Jelenlegi meteorológiai megfigyelések

A jelentés 4 órával és 6 perccel ezelõtt készült, 09:52 UTC
Nyugat-északnyugati szél 11 kt
Hőmérséklet 21°C
Páratartalom 60%
Légköri nyomás 1018 hPa
Látótávolság 10 km, vagy több
Szakadozott felhőzet 2000 lábon

METAR: FAEO 240952Z 30011KT 9999 BKN020 21/13 Q1018

Idő: 15:58 (13:58 UTC)


TAF: hiányzik

Meteorológiai megfigyelések és előrejelzések több, mint 4000 repülőtéren (METAR és TAF jelentéseket).

A térképen piros és sárga pontok jelzik az elérhető meteorológiai állomásokat.

Mozgassa az egeret a pont fölött, hogy megjelenjen az állomás neve.

Azután kattintson az időjárási megfigyelések és előrejelzések megtekintéséhez.

A térkép megváltoztatása: kattintson a fekete keresztel jelölt zöld gombra ráközelítéshez, a vonallal jelölt zöld gombra távolításhoz, vagy a zöld nyilakra a szomszédos térképek eléréséhez.


METAR-TAF: